Sharon, New Hampshire
Current Conditions -  °F | °C
As of 9:36 PM on Saturday 20 Dec 2014 (Local Time) from KAFN Reporting Station
Overcast Overcast  
Wind Chill: 29°   Ceiling: 2200
Heat Index: 29°   Visibility: 10mi
Dew Point: 22°   Wind: 0mph
Humidity: 75%   Direction: NA
Pressure: 30.26"   Gusts: NA
Location:  42.8756°N, 71.9378°W
Report Text: KAFN 210236Z AUTO 00000KT 10SM BKN022 OVC040 M02/M06 A3026 RMK AO2 T10171056
Loading
Personal Weather Stations






























Interactive Weather Map New forecast layout! Learn more

10-Day Weather Forecast

Advertisements
Track Severe Weather on mobile